Terminal Aerodrome Forecast
Issued by NWS

Home | Current Version | Previous Version | Text Only | Print | Product List | Glossary On
Versions: 1 2 3 4 5 6 7 8 9 10 11 12 13 14 15 16 17 18 19 20 21 22 23 24
000
FTUS41 KALY 191136
TAFPSF
TAF
KPSF 191136Z 1912/2012 28012G18KT P6SM BKN250
     FM191500 29014G23KT P6SM SCT020 BKN035
     FM192000 30015G25KT P6SM SCT015 OVC030
     FM200000 30010KT P6SM VCSH BKN015 OVC030
     FM200600 31009KT P6SM SCT015 OVC035=

USA.gov is the U.S. government's official web portal to all federal, state and local government web resources and services.